Rechercher aéroport 
image banner adimage banner ad
image banner ad

VIBR - Kullu Manali

Situé à Kullu, India

ICAO - VIBR, IATA - KUU

Données fournies par Airmate  

Information générale

Coordonnées: N31°52'37" E77°9'19"
Élévation : 3573 feet MSL.
 
Évalué:
Voir évaluations: [VIEW]


Voir autres Aéroports à Himachal Pradesh

Données opérationnelles

Accessible au public
Heure actuelle UTC:
Heure actuelle locale:
Météo
METAR: VIBR 210300Z 00000KT 5000 BR NSC 13/10 Q1022
TAF: TAF VIBR 202300Z 2100/2109 00000KT 2500 BR FEW100 BECMG 2105/2106 14005KT 5000 HZ SCT035
Voir NOTAMs / SUP AIP / TFR affectant cet aéroport [VIEW]
Fréquences de communication: [VIEW]

Pistes:

Identifiant RWYQFULongueur (ft)Largeur (ft)SurfaceLDA (ft)
16159°349198ASP
34339°349198

Coordonnées de l'aéroport

Adresse: Kullu India

Vue satellite de VIBR